Time,TemperatureF,DewpointF,PressureIn,WindDirection,WindDirectionDegrees,WindSpeedMPH,WindSpeedGustMPH,Humidity,HourlyPrecipIn,Conditions,Clouds,dailyrainin,SoftwareType,DateUTC
2013-02-27 00:01:00,30.9,19.4,29.65,NNW,345,3.5,0.0,62,0.00,-SN,OVC,0.00,WeatherDisplay:10.37,2013-02-27 06:01:00,
2013-02-27 00:06:00,30.9,19.4,29.65,NW,320,8.1,8.1,62,0.00,OVC,,0.00,WeatherDisplay:10.37,2013-02-27 06:06:00,
2013-02-27 00:11:00,30.9,19.4,29.65,NW,317,5.8,5.8,62,0.00,OVC,,0.00,WeatherDisplay:10.37,2013-02-27 06:11:00,
2013-02-27 00:16:00,30.9,19.4,29.67,WSW,258,8.1,8.1,62,0.00,OVC,,0.00,WeatherDisplay:10.37,2013-02-27 06:16:00,
2013-02-27 00:21:00,30.9,19.4,29.67,NNW,340,11.5,11.5,62,0.00,OVC,,0.00,WeatherDisplay:10.37,2013-02-27 06:21:00,
2013-02-27 00:26:00,30.7,18.9,29.67,NW,322,8.1,8.1,61,0.00,OVC,,0.00,WeatherDisplay:10.37,2013-02-27 06:26:00,
2013-02-27 00:31:00,30.7,18.9,29.67,NNW,334,5.8,5.8,61,0.00,OVC,,0.00,WeatherDisplay:10.37,2013-02-27 06:31:00,
2013-02-27 00:36:00,30.7,18.9,29.67,NE,43,8.1,8.1,61,0.00,OVC,,0.00,WeatherDisplay:10.37,2013-02-27 06:36:00,
2013-02-27 00:41:00,30.7,18.9,29.67,NW,314,0.0,0.0,61,0.00,OVC,,0.00,WeatherDisplay:10.37,2013-02-27 06:41:00,
2013-02-27 00:46:00,30.7,18.9,29.67,NNE,23,5.8,5.8,61,0.00,OVC,,0.00,WeatherDisplay:10.37,2013-02-27 06:46:00,
2013-02-27 00:51:00,30.7,18.9,29.67,West,278,7.6,7.6,61,0.00,OVC,,0.00,WeatherDisplay:10.37,2013-02-27 06:51:00,
2013-02-27 00:56:00,30.6,18.7,29.67,North,353,8.1,8.1,61,0.00,OVC,,0.00,WeatherDisplay:10.37,2013-02-27 06:56:00,
2013-02-27 01:01:00,30.6,18.7,29.65,North,357,5.8,5.8,61,0.00,OVC,,0.00,WeatherDisplay:10.37,2013-02-27 07:01:00,
2013-02-27 01:06:00,30.6,18.7,29.65,NW,314,8.1,8.1,61,0.00,OVC,,0.00,WeatherDisplay:10.37,2013-02-27 07:06:00,
2013-02-27 01:11:00,30.6,18.7,29.65,NNE,12,3.5,0.0,61,0.00,OVC,,0.00,WeatherDisplay:10.37,2013-02-27 07:11:00,
2013-02-27 01:16:00,30.4,18.5,29.65,West,265,5.8,5.8,61,0.00,OVC,,0.00,WeatherDisplay:10.37,2013-02-27 07:16:00,
2013-02-27 01:21:00,30.4,18.5,29.65,NE,47,8.1,8.1,61,0.00,OVC,,0.00,WeatherDisplay:10.37,2013-02-27 07:21:00,
2013-02-27 01:26:00,30.4,18.5,29.65,NNW,328,12.7,0.0,61,0.00,OVC,,0.00,WeatherDisplay:10.37,2013-02-27 07:26:00,
2013-02-27 01:31:00,30.2,18.4,29.65,WNW,287,5.8,5.8,61,0.00,OVC,,0.00,WeatherDisplay:10.37,2013-02-27 07:31:00,
2013-02-27 01:36:00,30.2,18.4,29.65,NNE,17,5.8,5.8,61,0.00,OVC,,0.00,WeatherDisplay:10.37,2013-02-27 07:36:00,
2013-02-27 01:41:00,30.2,18.4,29.65,NNW,348,8.1,8.1,61,0.00,OVC,,0.00,WeatherDisplay:10.37,2013-02-27 07:41:00,
2013-02-27 01:46:00,30.2,18.4,29.65,North,353,5.8,5.8,61,0.00,OVC,,0.00,WeatherDisplay:10.37,2013-02-27 07:46:00,
2013-02-27 01:51:00,30.0,18.2,29.65,NNW,336,8.1,8.1,61,0.00,OVC,,0.00,WeatherDisplay:10.37,2013-02-27 07:51:00,
2013-02-27 01:56:00,30.0,18.2,29.65,WNW,282,3.5,3.5,61,0.00,OVC,,0.00,WeatherDisplay:10.37,2013-02-27 07:56:00,
2013-02-27 02:01:00,30.0,18.2,29.65,NNW,339,6.9,6.9,61,0.00,OVC,,0.00,WeatherDisplay:10.37,2013-02-27 08:01:00,
2013-02-27 02:06:00,30.0,18.2,29.65,West,281,5.8,5.8,61,0.00,OVC,,0.00,WeatherDisplay:10.37,2013-02-27 08:06:00,
2013-02-27 02:11:00,29.8,18.0,29.65,NW,323,8.1,8.1,61,0.00,OVC,,0.00,WeatherDisplay:10.37,2013-02-27 08:11:00,
2013-02-27 02:16:00,29.8,18.0,29.65,NNW,341,3.5,3.5,61,0.00,OVC,,0.00,WeatherDisplay:10.37,2013-02-27 08:16:00,
2013-02-27 02:21:00,29.8,18.0,29.65,North,1,4.6,4.6,61,0.00,OVC,,0.00,WeatherDisplay:10.37,2013-02-27 08:21:00,
2013-02-27 02:26:00,29.8,18.0,29.65,NNE,19,5.8,0.0,61,0.00,OVC,,0.00,WeatherDisplay:10.37,2013-02-27 08:26:00,
2013-02-27 02:31:00,29.8,18.0,29.65,NNW,338,8.1,0.0,61,0.00,OVC,,0.00,WeatherDisplay:10.37,2013-02-27 08:31:00,
2013-02-27 02:36:00,29.8,18.0,29.65,North,353,10.4,10.4,61,0.00,OVC,,0.00,WeatherDisplay:10.37,2013-02-27 08:36:00,
2013-02-27 02:41:00,29.7,17.8,29.65,NW,326,5.8,5.8,61,0.00,OVC,,0.00,WeatherDisplay:10.37,2013-02-27 08:41:00,
2013-02-27 02:46:00,29.7,17.8,29.65,NW,324,5.8,5.8,61,0.00,OVC,,0.00,WeatherDisplay:10.37,2013-02-27 08:46:00,
2013-02-27 02:51:00,29.7,17.8,29.65,North,357,5.8,5.8,61,0.00,OVC,,0.00,WeatherDisplay:10.37,2013-02-27 08:51:00,
2013-02-27 02:56:00,29.7,17.8,29.65,NNW,343,10.4,10.4,61,0.00,OVC,,0.00,WeatherDisplay:10.37,2013-02-27 08:56:00,
2013-02-27 03:01:00,29.7,17.8,29.65,North,357,3.5,0.0,61,0.00,OVC,,0.00,WeatherDisplay:10.37,2013-02-27 09:01:00,
2013-02-27 03:06:00,29.7,17.8,29.65,North,357,7.6,7.6,61,0.00,OVC,,0.00,WeatherDisplay:10.37,2013-02-27 09:06:00,
2013-02-27 03:11:00,29.7,17.8,29.65,NW,310,10.4,10.4,61,0.00,OVC,,0.00,WeatherDisplay:10.37,2013-02-27 09:11:00,
2013-02-27 03:16:00,29.7,17.8,29.65,West,263,6.9,0.0,61,0.00,OVC,,0.00,WeatherDisplay:10.37,2013-02-27 09:16:00,
2013-02-27 03:21:00,29.7,17.5,29.65,NNE,20,5.8,5.8,60,0.00,OVC,,0.00,WeatherDisplay:10.37,2013-02-27 09:21:00,
2013-02-27 03:26:00,29.7,17.5,29.65,NNW,341,9.2,9.2,60,0.00,OVC,,0.00,WeatherDisplay:10.37,2013-02-27 09:26:00,
2013-02-27 03:31:00,29.7,17.5,29.65,North,357,3.5,3.5,60,0.00,OVC,,0.00,WeatherDisplay:10.37,2013-02-27 09:31:00,
2013-02-27 03:36:00,29.7,17.5,29.65,NNW,333,3.5,0.0,60,0.00,OVC,,0.00,WeatherDisplay:10.37,2013-02-27 09:36:00,
2013-02-27 03:41:00,29.7,17.5,29.65,NNW,328,8.1,8.1,60,0.00,OVC,,0.00,WeatherDisplay:10.37,2013-02-27 09:41:00,
2013-02-27 03:46:00,29.7,17.5,29.65,North,11,5.8,5.8,60,0.00,OVC,,0.00,WeatherDisplay:10.37,2013-02-27 09:46:00,
2013-02-27 03:51:00,29.7,17.5,29.65,NNW,338,5.8,5.8,60,0.00,OVC,,0.00,WeatherDisplay:10.37,2013-02-27 09:51:00,
2013-02-27 03:56:00,29.7,17.5,29.65,NNW,338,9.2,9.2,60,0.00,OVC,,0.00,WeatherDisplay:10.37,2013-02-27 09:56:00,
2013-02-27 04:01:00,29.7,17.5,29.65,NW,308,8.1,8.1,60,0.00,OVC,,0.00,WeatherDisplay:10.37,2013-02-27 10:01:00,
2013-02-27 04:06:00,29.7,17.5,29.65,NW,311,5.8,5.8,60,0.00,OVC,,0.00,WeatherDisplay:10.37,2013-02-27 10:06:00,
2013-02-27 04:11:00,29.7,17.5,29.65,NNW,343,5.8,5.8,60,0.00,OVC,,0.00,WeatherDisplay:10.37,2013-02-27 10:11:00,
2013-02-27 04:16:00,29.7,17.5,29.65,North,2,5.8,5.8,60,0.00,OVC,,0.00,WeatherDisplay:10.37,2013-02-27 10:16:00,
2013-02-27 04:22:00,29.5,16.9,29.65,NW,304,3.5,3.5,59,0.00,OVC,,0.00,WeatherDisplay:10.37,2013-02-27 10:22:00,
2013-02-27 04:27:00,29.5,16.9,29.65,NNW,342,4.0,4.0,59,0.00,OVC,,0.00,WeatherDisplay:10.37,2013-02-27 10:27:00,
2013-02-27 04:32:00,29.5,16.9,29.65,West,266,0.0,0.0,59,0.00,OVC,,0.00,WeatherDisplay:10.37,2013-02-27 10:32:00,
2013-02-27 04:37:00,29.5,16.9,29.65,WNW,302,3.5,3.5,59,0.00,OVC,,0.00,WeatherDisplay:10.37,2013-02-27 10:37:00,
2013-02-27 04:42:00,29.5,16.9,29.67,NW,315,3.5,3.6,59,0.00,OVC,,0.00,WeatherDisplay:10.37,2013-02-27 10:42:00,
2013-02-27 04:47:00,29.5,16.9,29.67,WNW,297,3.5,3.5,59,0.00,OVC,,0.00,WeatherDisplay:10.37,2013-02-27 10:47:00,
2013-02-27 04:52:00,29.5,16.9,29.67,NNW,343,8.0,8.0,59,0.00,OVC,,0.00,WeatherDisplay:10.37,2013-02-27 10:52:00,
2013-02-27 04:57:00,29.5,16.9,29.67,NNW,340,3.5,3.5,59,0.00,OVC,,0.00,WeatherDisplay:10.37,2013-02-27 10:57:00,
2013-02-27 05:02:00,29.5,16.9,29.67,WNW,283,5.8,5.8,59,0.00,OVC,,0.00,WeatherDisplay:10.37,2013-02-27 11:02:00,
2013-02-27 05:07:00,29.5,16.9,29.67,North,357,5.8,5.8,59,0.00,OVC,,0.00,WeatherDisplay:10.37,2013-02-27 11:07:00,
2013-02-27 05:12:00,29.5,16.9,29.67,West,279,4.6,0.0,59,0.00,OVC,,0.00,WeatherDisplay:10.37,2013-02-27 11:12:00,
2013-02-27 05:17:00,29.5,16.9,29.70,NNW,329,5.8,5.8,59,0.00,OVC,,0.00,WeatherDisplay:10.37,2013-02-27 11:17:00,
2013-02-27 05:22:00,29.5,16.9,29.70,NNW,336,5.8,5.8,59,0.00,OVC,,0.00,WeatherDisplay:10.37,2013-02-27 11:22:00,
2013-02-27 05:27:00,29.5,16.9,29.70,NW,326,0.0,0.0,59,0.00,OVC,,0.00,WeatherDisplay:10.37,2013-02-27 11:27:00,
2013-02-27 05:32:00,29.5,16.9,29.70,NW,316,5.8,5.8,59,0.00,OVC,,0.00,WeatherDisplay:10.37,2013-02-27 11:32:00,
2013-02-27 05:37:00,29.5,16.9,29.70,WNW,301,4.6,4.6,59,0.00,OVC,,0.00,WeatherDisplay:10.37,2013-02-27 11:37:00,
2013-02-27 05:42:00,29.5,16.9,29.70,NW,305,5.8,5.8,59,0.00,OVC,,0.00,WeatherDisplay:10.37,2013-02-27 11:42:00,
2013-02-27 05:47:00,29.3,16.7,29.70,WNW,301,2.3,0.0,59,0.00,OVC,,0.00,WeatherDisplay:10.37,2013-02-27 11:47:00,
2013-02-27 05:52:00,29.3,16.7,29.70,NNW,329,3.5,0.0,59,0.00,OVC,,0.00,WeatherDisplay:10.37,2013-02-27 11:52:00,
2013-02-27 05:57:00,29.3,16.3,29.70,WNW,284,4.6,4.6,58,0.00,OVC,,0.00,WeatherDisplay:10.37,2013-02-27 11:57:00,
2013-02-27 06:02:00,29.3,16.3,29.70,NW,320,2.3,0.0,58,0.00,OVC,,0.00,WeatherDisplay:10.37,2013-02-27 12:02:00,
2013-02-27 06:07:00,29.3,16.3,29.70,NW,314,4.6,4.6,58,0.00,OVC,,0.00,WeatherDisplay:10.37,2013-02-27 12:07:00,
2013-02-27 06:12:00,29.3,16.3,29.70,North,349,3.5,0.0,58,0.00,OVC,,0.00,WeatherDisplay:10.37,2013-02-27 12:12:00,
2013-02-27 06:17:00,29.3,16.3,29.70,WNW,300,5.8,5.8,58,0.00,OVC,,0.00,WeatherDisplay:10.37,2013-02-27 12:17:00,
2013-02-27 06:22:00,29.3,16.3,29.70,NW,311,4.6,4.6,58,0.00,OVC,,0.00,WeatherDisplay:10.37,2013-02-27 12:22:00,
2013-02-27 06:27:00,29.1,16.2,29.70,NNW,327,5.8,5.8,58,0.00,OVC,,0.00,WeatherDisplay:10.37,2013-02-27 12:27:00,
2013-02-27 06:32:00,29.1,16.2,29.70,NW,320,5.8,5.8,58,0.00,OVC,,0.00,WeatherDisplay:10.37,2013-02-27 12:32:00,
2013-02-27 06:37:00,29.1,16.2,29.70,NNW,348,6.9,6.9,58,0.00,OVC,,0.00,WeatherDisplay:10.37,2013-02-27 12:37:00,
2013-02-27 06:42:00,29.1,16.2,29.70,NW,310,5.8,5.8,58,0.00,OVC,,0.00,WeatherDisplay:10.37,2013-02-27 12:42:00,
2013-02-27 06:47:00,29.1,16.2,29.70,WNW,294,5.8,5.8,58,0.00,OVC,,0.00,WeatherDisplay:10.37,2013-02-27 12:47:00,
2013-02-27 06:52:00,29.1,16.2,29.70,NNW,340,5.4,5.4,58,0.00,OVC,,0.00,WeatherDisplay:10.37,2013-02-27 12:52:00,
2013-02-27 06:57:00,29.1,16.2,29.70,NNW,348,5.8,5.8,58,0.00,OVC,,0.00,WeatherDisplay:10.37,2013-02-27 12:57:00,
2013-02-27 07:03:00,29.1,16.2,29.70,NNW,327,4.6,4.6,58,0.00,OVC,,0.00,WeatherDisplay:10.37,2013-02-27 13:03:00,
2013-02-27 07:08:00,29.1,16.6,29.70,NW,322,5.8,5.8,59,0.00,OVC,,0.00,WeatherDisplay:10.37,2013-02-27 13:08:00,
2013-02-27 07:13:00,29.3,16.7,29.70,NW,316,3.5,3.5,59,0.00,OVC,,0.00,WeatherDisplay:10.37,2013-02-27 13:13:00,
2013-02-27 07:18:00,29.3,16.7,29.70,North,10,5.8,5.8,59,0.00,OVC,,0.00,WeatherDisplay:10.37,2013-02-27 13:18:00,
2013-02-27 07:23:00,29.3,16.7,29.70,WNW,290,8.1,8.1,59,0.00,OVC,,0.00,WeatherDisplay:10.37,2013-02-27 13:23:00,
2013-02-27 07:28:00,29.5,16.9,29.70,NW,320,0.0,2.2,59,0.00,OVC,,0.00,WeatherDisplay:10.37,2013-02-27 13:28:00,
2013-02-27 07:33:00,29.5,16.9,29.70,WNW,298,5.8,5.8,59,0.00,OVC,,0.00,WeatherDisplay:10.37,2013-02-27 13:33:00,
2013-02-27 07:38:00,29.5,16.9,29.70,North,1,0.0,0.0,59,0.00,-SN,OVC,0.00,WeatherDisplay:10.37,2013-02-27 13:38:00,
2013-02-27 07:43:00,29.5,16.9,29.70,West,277,5.8,5.8,59,0.00,-SN,OVC,0.00,WeatherDisplay:10.37,2013-02-27 13:43:00,
2013-02-27 07:48:00,29.7,17.1,29.70,NNW,345,3.5,0.0,59,0.00,-SN,OVC,0.00,WeatherDisplay:10.37,2013-02-27 13:48:00,
2013-02-27 07:53:00,29.7,17.1,29.70,WNW,284,5.8,5.8,59,0.00,-SN,OVC,0.00,WeatherDisplay:10.37,2013-02-27 13:53:00,
2013-02-27 07:58:00,29.7,17.1,29.70,North,353,3.5,3.5,59,0.00,-SN,OVC,0.00,WeatherDisplay:10.37,2013-02-27 13:58:00,
2013-02-27 08:03:00,29.7,17.1,29.70,North,353,8.1,8.1,59,0.00,-SN,OVC,0.00,WeatherDisplay:10.37,2013-02-27 14:03:00,
2013-02-27 08:08:00,29.8,17.2,29.70,NW,311,8.1,8.1,59,0.00,-SN,OVC,0.00,WeatherDisplay:10.37,2013-02-27 14:08:00,
2013-02-27 08:13:00,29.8,17.2,29.73,North,357,3.5,3.5,59,0.00,-SN,OVC,0.00,WeatherDisplay:10.37,2013-02-27 14:13:00,
2013-02-27 08:18:00,30.0,17.4,29.73,NNW,343,8.1,8.1,59,0.00,-SN,OVC,0.00,WeatherDisplay:10.37,2013-02-27 14:18:00,
2013-02-27 08:23:00,30.0,17.4,29.73,NNW,343,4.6,4.6,59,0.00,OVC,,0.00,WeatherDisplay:10.37,2013-02-27 14:23:00,
2013-02-27 08:28:00,30.2,17.6,29.73,NW,305,8.1,8.1,59,0.00,OVC,,0.00,WeatherDisplay:10.37,2013-02-27 14:28:00,
2013-02-27 08:33:00,30.2,17.6,29.73,NW,324,5.8,5.8,59,0.00,OVC,,0.00,WeatherDisplay:10.37,2013-02-27 14:33:00,
2013-02-27 08:38:00,30.2,17.6,29.73,North,10,9.2,9.2,59,0.00,OVC,,0.00,WeatherDisplay:10.37,2013-02-27 14:38:00,
2013-02-27 08:43:00,30.4,17.4,29.73,NNW,342,5.8,5.8,58,0.00,OVC,,0.00,WeatherDisplay:10.37,2013-02-27 14:43:00,
2013-02-27 08:48:00,30.4,17.4,29.73,NNW,344,8.1,8.1,58,0.00,OVC,,0.00,WeatherDisplay:10.37,2013-02-27 14:48:00,
2013-02-27 08:53:00,30.4,17.4,29.73,NW,311,5.8,5.8,58,0.00,OVC,,0.00,WeatherDisplay:10.37,2013-02-27 14:53:00,
2013-02-27 08:58:00,30.6,17.5,29.73,North,9,5.8,5.8,58,0.00,OVC,,0.00,WeatherDisplay:10.37,2013-02-27 14:58:00,
2013-02-27 09:03:00,30.6,17.5,29.73,NNW,333,8.1,8.1,58,0.00,OVC,,0.00,WeatherDisplay:10.37,2013-02-27 15:03:00,
2013-02-27 09:08:00,30.7,17.3,29.73,NW,323,5.8,5.8,57,0.00,OVC,,0.00,WeatherDisplay:10.37,2013-02-27 15:08:00,
2013-02-27 09:13:00,30.7,17.3,29.73,NW,315,3.5,3.5,57,0.00,OVC,,0.00,WeatherDisplay:10.37,2013-02-27 15:13:00,
2013-02-27 09:18:00,30.9,17.5,29.73,NW,307,5.8,5.8,57,0.00,OVC,,0.00,WeatherDisplay:10.37,2013-02-27 15:18:00,
2013-02-27 09:23:00,30.9,17.5,29.73,NNW,334,8.1,8.1,57,0.00,-SN,OVC,0.00,WeatherDisplay:10.37,2013-02-27 15:23:00,
2013-02-27 09:28:00,30.9,17.5,29.73,North,353,4.6,4.6,57,0.00,-SN,OVC,0.00,WeatherDisplay:10.37,2013-02-27 15:28:00,
2013-02-27 09:33:00,30.9,17.5,29.73,North,353,3.5,3.5,57,0.00,-SN,OVC,0.00,WeatherDisplay:10.37,2013-02-27 15:33:00,
2013-02-27 09:38:00,31.1,17.2,29.73,NW,311,3.5,4.0,56,0.00,OVC,,0.00,WeatherDisplay:10.37,2013-02-27 15:38:00,
2013-02-27 09:43:00,31.1,17.2,29.73,NNW,330,3.5,3.5,56,0.00,OVC,,0.00,WeatherDisplay:10.37,2013-02-27 15:43:00,
2013-02-27 09:48:00,31.1,17.2,29.73,NNW,348,5.8,0.0,56,0.00,OVC,,0.00,WeatherDisplay:10.37,2013-02-27 15:48:00,
2013-02-27 09:53:00,31.3,17.4,29.73,NNW,337,5.8,5.8,56,0.00,OVC,,0.00,WeatherDisplay:10.37,2013-02-27 15:53:00,
2013-02-27 09:58:00,31.3,17.4,29.73,NNW,328,5.8,0.0,56,0.00,OVC,,0.00,WeatherDisplay:10.37,2013-02-27 15:58:00,
2013-02-27 10:03:00,31.5,17.6,29.73,NNW,329,3.5,3.5,56,0.00,OVC,,0.00,WeatherDisplay:10.37,2013-02-27 16:03:00,
2013-02-27 10:08:00,31.5,17.6,29.73,NW,312,8.1,8.1,56,0.00,CLR,OVC,0.00,WeatherDisplay:10.37,2013-02-27 16:08:00,
2013-02-27 10:13:00,31.6,17.7,29.73,NNW,337,3.5,3.5,56,0.00,CLR,OVC,0.00,WeatherDisplay:10.37,2013-02-27 16:13:00,
2013-02-27 10:18:00,31.8,18.3,29.73,WNW,293,5.8,5.8,57,0.00,CLR,OVC,0.00,WeatherDisplay:10.37,2013-02-27 16:18:00,
2013-02-27 10:23:00,31.8,18.3,29.73,NNW,328,0.0,0.0,57,0.00,-SN,OVC,0.00,WeatherDisplay:10.37,2013-02-27 16:23:00,
2013-02-27 10:28:00,32.0,18.5,29.73,NW,312,4.6,4.6,57,0.00,-SN,OVC,0.00,WeatherDisplay:10.37,2013-02-27 16:28:00,
2013-02-27 10:34:00,32.0,18.1,29.73,NNW,330,2.3,0.0,56,0.00,-SN,OVC,0.00,WeatherDisplay:10.37,2013-02-27 16:34:00,
2013-02-27 10:39:00,32.2,18.2,29.73,North,0,3.5,3.5,56,0.00,-SN,OVC,0.00,WeatherDisplay:10.37,2013-02-27 16:39:00,
2013-02-27 10:44:00,32.2,18.6,29.73,NW,323,5.8,5.8,57,0.00,-SN,OVC,0.00,WeatherDisplay:10.37,2013-02-27 16:44:00,
2013-02-27 10:49:00,32.2,18.2,29.73,WNW,293,5.8,0.0,56,0.00,-SN,OVC,0.00,WeatherDisplay:10.37,2013-02-27 16:49:00,
2013-02-27 10:54:00,32.4,18.8,29.73,WSW,258,3.5,3.5,57,0.00,-SN,OVC,0.00,WeatherDisplay:10.37,2013-02-27 16:54:00,
2013-02-27 10:59:00,32.4,18.4,29.73,NW,321,3.5,0.0,56,0.00,-SN,OVC,0.00,WeatherDisplay:10.37,2013-02-27 16:59:00,
2013-02-27 11:04:00,32.5,18.6,29.73,WNW,282,2.7,2.7,56,0.00,-SN,OVC,0.00,WeatherDisplay:10.37,2013-02-27 17:04:00,
2013-02-27 11:09:00,32.5,18.6,29.73,West,263,2.3,0.0,56,0.00,-SN,OVC,0.00,WeatherDisplay:10.37,2013-02-27 17:09:00,
2013-02-27 11:14:00,32.5,18.6,29.73,NW,318,3.5,3.5,56,0.00,-SN,OVC,0.00,WeatherDisplay:10.37,2013-02-27 17:14:00,
2013-02-27 11:19:00,32.7,18.7,29.73,NNW,337,5.8,5.8,56,0.00,-SN,OVC,0.00,WeatherDisplay:10.37,2013-02-27 17:19:00,
2013-02-27 11:24:00,32.7,18.7,29.73,NW,315,3.5,3.6,56,0.00,-SN,OVC,0.00,WeatherDisplay:10.37,2013-02-27 17:24:00,
2013-02-27 11:29:00,32.9,18.9,29.73,NNW,329,5.8,5.8,56,0.00,-SN,OVC,0.00,WeatherDisplay:10.37,2013-02-27 17:29:00,
2013-02-27 11:34:00,33.1,19.1,29.73,WSW,239,5.8,7.2,56,0.00,-SN,OVC,0.00,WeatherDisplay:10.37,2013-02-27 17:34:00,
2013-02-27 11:39:00,33.1,19.1,29.73,WNW,295,3.5,3.6,56,0.00,-SN,OVC,0.00,WeatherDisplay:10.37,2013-02-27 17:39:00,
2013-02-27 11:44:00,33.1,19.1,29.73,NW,324,3.5,0.0,56,0.00,-SN,OVC,0.00,WeatherDisplay:10.37,2013-02-27 17:44:00,
2013-02-27 11:49:00,33.1,19.1,29.73,West,271,10.4,10.4,56,0.00,-SN,OVC,0.00,WeatherDisplay:10.37,2013-02-27 17:49:00,
2013-02-27 11:54:00,33.1,18.7,29.73,North,353,5.8,5.8,55,0.00,-SN,OVC,0.00,WeatherDisplay:10.37,2013-02-27 17:54:00,
2013-02-27 11:59:00,33.1,18.7,29.73,West,270,5.8,5.8,55,0.00,-SN,OVC,0.00,WeatherDisplay:10.37,2013-02-27 17:59:00,
2013-02-27 12:04:00,32.9,18.5,29.73,North,353,5.8,5.8,55,0.00,-SN,OVC,0.00,WeatherDisplay:10.37,2013-02-27 18:04:00,
2013-02-27 12:09:00,32.9,18.5,29.73,NNW,342,5.8,5.8,55,0.00,-SN,OVC,0.00,WeatherDisplay:10.37,2013-02-27 18:09:00,
2013-02-27 12:14:00,32.7,17.9,29.73,NW,306,3.5,3.5,54,0.00,-SN,OVC,0.00,WeatherDisplay:10.37,2013-02-27 18:14:00,
2013-02-27 12:19:00,32.7,17.9,29.73,WNW,303,3.5,4.0,54,0.00,-SN,OVC,0.00,WeatherDisplay:10.37,2013-02-27 18:19:00,
2013-02-27 12:24:00,32.7,17.9,29.73,NW,320,5.8,5.8,54,0.00,-SN,OVC,0.00,WeatherDisplay:10.37,2013-02-27 18:24:00,
2013-02-27 12:29:00,32.7,17.9,29.73,NNW,338,5.8,5.8,54,0.00,-SN,OVC,0.00,WeatherDisplay:10.37,2013-02-27 18:29:00,
2013-02-27 12:34:00,32.7,17.9,29.73,NW,324,5.8,5.8,54,0.00,-SN,OVC,0.00,WeatherDisplay:10.37,2013-02-27 18:34:00,
2013-02-27 12:39:00,32.7,17.9,29.73,West,276,5.8,5.8,54,0.00,-SN,OVC,0.00,WeatherDisplay:10.37,2013-02-27 18:39:00,
2013-02-27 12:44:00,32.9,18.1,29.73,North,2,5.8,5.8,54,0.00,-SN,OVC,0.00,WeatherDisplay:10.37,2013-02-27 18:44:00,
2013-02-27 12:49:00,33.1,18.2,29.73,NNW,341,4.6,0.0,54,0.00,-SN,OVC,0.00,WeatherDisplay:10.37,2013-02-27 18:49:00,
2013-02-27 12:54:00,33.1,18.2,29.73,NNW,343,2.3,0.0,54,0.00,-SN,OVC,0.00,WeatherDisplay:10.37,2013-02-27 18:54:00,
2013-02-27 12:59:00,33.1,18.2,29.73,NNW,340,5.8,5.8,54,0.00,-SN,OVC,0.00,WeatherDisplay:10.37,2013-02-27 18:59:00,
2013-02-27 13:04:00,32.9,18.1,29.73,NW,322,5.8,5.8,54,0.00,-SN,OVC,0.00,WeatherDisplay:10.37,2013-02-27 19:04:00,
2013-02-27 13:09:00,32.7,17.9,29.73,NNW,344,2.3,0.0,54,0.00,-SN,OVC,0.00,WeatherDisplay:10.37,2013-02-27 19:09:00,
2013-02-27 13:14:00,32.9,18.1,29.73,West,267,4.6,4.6,54,0.00,-SN,OVC,0.00,WeatherDisplay:10.37,2013-02-27 19:14:00,
2013-02-27 13:19:00,32.9,18.1,29.73,NW,307,4.6,4.6,54,0.00,-SN,OVC,0.00,WeatherDisplay:10.37,2013-02-27 19:19:00,
2013-02-27 13:24:00,32.7,17.9,29.73,NW,304,3.5,3.5,54,0.00,-SN,OVC,0.00,WeatherDisplay:10.37,2013-02-27 19:24:00,
2013-02-27 13:29:00,32.7,17.9,29.73,WNW,290,5.8,5.8,54,0.00,-SN,OVC,0.00,WeatherDisplay:10.37,2013-02-27 19:29:00,
2013-02-27 13:34:00,32.7,17.9,29.73,NW,315,5.8,5.8,54,0.00,-SN,OVC,0.00,WeatherDisplay:10.37,2013-02-27 19:34:00,
2013-02-27 13:39:00,32.7,17.9,29.73,WNW,287,8.1,8.1,54,0.00,-SN,OVC,0.00,WeatherDisplay:10.37,2013-02-27 19:39:00,
2013-02-27 13:44:00,32.9,18.1,29.73,NNW,343,5.8,5.8,54,0.00,-SN,OVC,0.00,WeatherDisplay:10.37,2013-02-27 19:44:00,
2013-02-27 13:49:00,33.1,18.2,29.73,NNW,327,5.8,5.8,54,0.00,-SN,OVC,0.00,WeatherDisplay:10.37,2013-02-27 19:49:00,
2013-02-27 13:54:00,33.1,18.2,29.73,NW,317,3.5,3.6,54,0.00,-SN,OVC,0.00,WeatherDisplay:10.37,2013-02-27 19:54:00,
2013-02-27 13:59:00,33.1,18.2,29.76,WNW,290,6.9,0.0,54,0.00,-SN,OVC,0.00,WeatherDisplay:10.37,2013-02-27 19:59:00,
2013-02-27 14:04:00,33.3,18.4,29.76,North,353,3.5,0.0,54,0.00,-SN,OVC,0.00,WeatherDisplay:10.37,2013-02-27 20:04:00,
2013-02-27 14:09:00,33.1,18.2,29.76,West,273,8.1,8.1,54,0.00,-SN,OVC,0.00,WeatherDisplay:10.37,2013-02-27 20:09:00,
2013-02-27 14:14:00,33.1,18.2,29.76,NNW,331,8.1,8.1,54,0.00,-SN,OVC,0.00,WeatherDisplay:10.37,2013-02-27 20:14:00,
2013-02-27 14:19:00,33.1,18.2,29.76,WNW,298,5.8,5.8,54,0.00,-SN,OVC,0.00,WeatherDisplay:10.37,2013-02-27 20:19:00,
2013-02-27 14:24:00,33.1,18.2,29.76,NW,310,5.8,0.0,54,0.00,-SN,OVC,0.00,WeatherDisplay:10.37,2013-02-27 20:24:00,
2013-02-27 14:29:00,33.3,18.4,29.76,WNW,291,8.1,8.1,54,0.00,-SN,OVC,0.00,WeatherDisplay:10.37,2013-02-27 20:29:00,
2013-02-27 14:34:00,33.3,18.4,29.76,NNW,331,5.8,5.8,54,0.00,-SN,OVC,0.00,WeatherDisplay:10.37,2013-02-27 20:34:00,
2013-02-27 14:39:00,33.4,18.6,29.76,NNW,333,4.6,0.0,54,0.00,-SN,OVC,0.00,WeatherDisplay:10.37,2013-02-27 20:39:00,
2013-02-27 14:44:00,33.3,18.4,29.76,West,267,5.8,5.8,54,0.00,-SN,OVC,0.00,WeatherDisplay:10.37,2013-02-27 20:44:00,
2013-02-27 14:49:00,33.3,18.4,29.76,WNW,290,5.8,5.8,54,0.00,-SN,OVC,0.00,WeatherDisplay:10.37,2013-02-27 20:49:00,
2013-02-27 14:54:00,33.3,18.4,29.76,WNW,298,3.5,3.5,54,0.00,-SN,OVC,0.00,WeatherDisplay:10.37,2013-02-27 20:54:00,
2013-02-27 14:59:00,33.3,18.4,29.76,NNW,333,5.8,5.8,54,0.00,-SN,OVC,0.00,WeatherDisplay:10.37,2013-02-27 20:59:00,
2013-02-27 15:04:00,33.3,18.4,29.76,NNW,333,3.5,0.0,54,0.00,-SN,OVC,0.00,WeatherDisplay:10.37,2013-02-27 21:04:00,
2013-02-27 15:09:00,33.1,18.2,29.76,NNW,338,3.5,3.5,54,0.00,-SN,OVC,0.00,WeatherDisplay:10.37,2013-02-27 21:09:00,
2013-02-27 15:14:00,33.1,18.2,29.76,NW,310,2.3,0.0,54,0.00,-SN,OVC,0.00,WeatherDisplay:10.37,2013-02-27 21:14:00,
2013-02-27 15:19:00,33.1,18.2,29.76,WNW,303,9.2,9.2,54,0.00,-SN,OVC,0.00,WeatherDisplay:10.37,2013-02-27 21:19:00,
2013-02-27 15:24:00,33.1,18.7,29.76,NW,315,8.1,8.1,55,0.00,-SN,OVC,0.00,WeatherDisplay:10.37,2013-02-27 21:24:00,
2013-02-27 15:29:00,33.1,18.7,29.76,SW,227,6.9,6.9,55,0.00,-SN,OVC,0.00,WeatherDisplay:10.37,2013-02-27 21:29:00,
2013-02-27 15:34:00,32.9,18.5,29.76,NW,313,5.8,5.8,55,0.00,-SN,OVC,0.00,WeatherDisplay:10.37,2013-02-27 21:34:00,
2013-02-27 15:39:00,32.9,18.5,29.76,North,353,5.8,5.8,55,0.00,-SN,OVC,0.00,WeatherDisplay:10.37,2013-02-27 21:39:00,
2013-02-27 15:44:00,32.9,18.5,29.76,NNW,339,3.5,3.5,55,0.00,-SN,OVC,0.00,WeatherDisplay:10.37,2013-02-27 21:44:00,
2013-02-27 15:49:00,32.9,18.5,29.76,WNW,290,8.1,8.1,55,0.00,-SN,OVC,0.00,WeatherDisplay:10.37,2013-02-27 21:49:00,
2013-02-27 15:54:00,32.9,18.9,29.76,NW,313,5.8,5.8,56,0.00,-SN,OVC,0.00,WeatherDisplay:10.37,2013-02-27 21:54:00,
2013-02-27 15:59:00,32.9,18.9,29.76,NW,307,4.6,4.6,56,0.00,-SN,OVC,0.00,WeatherDisplay:10.37,2013-02-27 21:59:00,
2013-02-27 16:04:00,32.7,18.7,29.76,NW,314,5.8,5.8,56,0.00,-SN,OVC,0.00,WeatherDisplay:10.37,2013-02-27 22:04:00,
2013-02-27 16:09:00,32.7,18.7,29.76,West,275,6.9,6.9,56,0.00,-SN,OVC,0.00,WeatherDisplay:10.37,2013-02-27 22:09:00,
2013-02-27 16:14:00,32.5,18.6,29.79,West,275,4.0,4.0,56,0.00,-SN,OVC,0.00,WeatherDisplay:10.37,2013-02-27 22:14:00,
2013-02-27 16:19:00,32.5,18.6,29.79,NW,315,5.8,5.8,56,0.00,-SN,OVC,0.00,WeatherDisplay:10.37,2013-02-27 22:19:00,
2013-02-27 16:24:00,32.5,18.6,29.79,West,277,3.5,3.5,56,0.00,-SN,OVC,0.00,WeatherDisplay:10.37,2013-02-27 22:24:00,
2013-02-27 16:29:00,32.5,18.6,29.79,NW,304,3.5,0.0,56,0.00,-SN,OVC,0.00,WeatherDisplay:10.37,2013-02-27 22:29:00,
2013-02-27 16:34:00,32.4,18.4,29.79,NW,318,3.6,3.6,56,0.00,-SN,OVC,0.00,WeatherDisplay:10.37,2013-02-27 22:34:00,
2013-02-27 16:39:00,32.4,18.4,29.79,NNW,338,5.8,5.8,56,0.00,-SN,OVC,0.00,WeatherDisplay:10.37,2013-02-27 22:39:00,
2013-02-27 16:44:00,32.4,18.4,29.79,WNW,300,5.8,5.8,56,0.00,-SN,OVC,0.00,WeatherDisplay:10.37,2013-02-27 22:44:00,
2013-02-27 16:49:00,32.4,18.4,29.79,NW,306,3.5,0.0,56,0.00,-SN,OVC,0.00,WeatherDisplay:10.37,2013-02-27 22:49:00,
2013-02-27 16:54:00,32.4,18.4,29.79,WNW,292,0.0,0.0,56,0.00,-SN,OVC,0.00,WeatherDisplay:10.37,2013-02-27 22:54:00,
2013-02-27 17:00:00,32.2,18.2,29.79,NW,316,0.0,0.0,56,0.00,-SN,OVC,0.00,WeatherDisplay:10.37,2013-02-27 23:00:00,
2013-02-27 17:05:00,32.2,18.6,29.79,WNW,290,0.0,0.0,57,0.00,-SN,OVC,0.00,WeatherDisplay:10.37,2013-02-27 23:05:00,
2013-02-27 17:10:00,32.2,18.6,29.79,WNW,303,0.0,0.0,57,0.00,-SN,OVC,0.00,WeatherDisplay:10.37,2013-02-27 23:10:00,
2013-02-27 17:15:00,32.2,18.6,29.79,North,353,0.0,0.0,57,0.00,-SN,OVC,0.00,WeatherDisplay:10.37,2013-02-27 23:15:00,
2013-02-27 17:20:00,32.2,18.6,29.79,NNW,330,0.0,0.0,57,0.00,-SN,OVC,0.00,WeatherDisplay:10.37,2013-02-27 23:20:00,
2013-02-27 17:25:00,32.2,18.6,29.79,West,271,0.0,0.0,57,0.00,-SN,OVC,0.00,WeatherDisplay:10.37,2013-02-27 23:25:00,
2013-02-27 17:30:00,32.2,18.6,29.79,West,278,0.0,0.0,57,0.00,-SN,OVC,0.00,WeatherDisplay:10.37,2013-02-27 23:30:00,
2013-02-27 17:35:00,32.2,18.6,29.79,West,267,0.0,0.0,57,0.00,-SN,OVC,0.00,WeatherDisplay:10.37,2013-02-27 23:35:00,
2013-02-27 17:40:00,32.2,18.6,29.79,West,275,0.0,0.0,57,0.00,-SN,OVC,0.00,WeatherDisplay:10.37,2013-02-27 23:40:00,
2013-02-27 17:45:00,32.2,18.6,29.82,WNW,300,0.0,0.0,57,0.00,-SN,OVC,0.00,WeatherDisplay:10.37,2013-02-27 23:45:00,
2013-02-27 17:50:00,32.2,18.6,29.82,West,270,0.0,0.0,57,0.00,-SN,OVC,0.00,WeatherDisplay:10.37,2013-02-27 23:50:00,
2013-02-27 17:55:00,32.2,18.6,29.82,NNW,328,0.0,0.0,57,0.00,-SN,OVC,0.00,WeatherDisplay:10.37,2013-02-27 23:55:00,
2013-02-27 18:00:00,32.2,18.6,29.82,NNW,327,0.0,0.0,57,0.00,-SN,OVC,0.00,WeatherDisplay:10.37,2013-02-28 00:00:00,
2013-02-27 18:05:00,32.0,18.5,29.82,NNW,327,0.0,0.0,57,0.00,-SN,OVC,0.00,WeatherDisplay:10.37,2013-02-28 00:05:00,
2013-02-27 18:10:00,32.0,18.5,29.82,West,269,0.0,0.0,57,0.00,-SN,OVC,0.00,WeatherDisplay:10.37,2013-02-28 00:10:00,
2013-02-27 18:15:00,32.0,18.5,29.82,North,349,0.0,0.0,57,0.00,-SN,OVC,0.00,WeatherDisplay:10.37,2013-02-28 00:15:00,
2013-02-27 18:20:00,32.0,18.5,29.82,WNW,303,0.0,0.0,57,0.00,-SN,OVC,0.00,WeatherDisplay:10.37,2013-02-28 00:20:00,
2013-02-27 18:25:00,32.0,18.5,29.82,West,281,0.0,0.0,57,0.00,-SN,OVC,0.00,WeatherDisplay:10.37,2013-02-28 00:25:00,
2013-02-27 18:30:00,32.0,18.5,29.79,WNW,297,0.0,0.0,57,0.00,-SN,OVC,0.00,WeatherDisplay:10.37,2013-02-28 00:30:00,
2013-02-27 18:35:00,32.0,18.9,29.79,WNW,297,0.0,0.0,58,0.00,-SN,OVC,0.00,WeatherDisplay:10.37,2013-02-28 00:35:00,
2013-02-27 18:40:00,32.0,18.9,29.79,WNW,300,0.0,0.0,58,0.00,-SN,OVC,0.00,WeatherDisplay:10.37,2013-02-28 00:40:00,
2013-02-27 18:45:00,32.0,18.9,29.82,NW,321,0.0,0.0,58,0.00,-SN,OVC,0.00,WeatherDisplay:10.37,2013-02-28 00:45:00,
2013-02-27 18:50:00,32.0,18.9,29.82,NNW,329,0.0,0.0,58,0.00,-SN,OVC,0.00,WeatherDisplay:10.37,2013-02-28 00:50:00,
2013-02-27 18:55:00,32.0,18.9,29.82,NNW,341,0.0,0.0,58,0.00,-SN,OVC,0.00,WeatherDisplay:10.37,2013-02-28 00:55:00,
2013-02-27 19:00:00,32.0,18.9,29.82,NW,306,0.0,0.0,58,0.00,-SN,OVC,0.00,WeatherDisplay:10.37,2013-02-28 01:00:00,
2013-02-27 19:05:00,32.0,19.3,29.82,WNW,303,0.0,0.0,59,0.00,-SN,OVC,0.00,WeatherDisplay:10.37,2013-02-28 01:05:00,
2013-02-27 19:10:00,32.0,19.3,29.82,NW,317,0.0,0.0,59,0.00,-SN,OVC,0.00,WeatherDisplay:10.37,2013-02-28 01:10:00,
2013-02-27 19:15:00,32.0,19.3,29.82,WNW,300,0.0,0.0,59,0.00,-SN,OVC,0.00,WeatherDisplay:10.37,2013-02-28 01:15:00,
2013-02-27 19:20:00,32.0,19.3,29.82,WNW,282,0.0,0.0,59,0.00,-SN,OVC,0.00,WeatherDisplay:10.37,2013-02-28 01:20:00,
2013-02-27 19:25:00,32.0,19.3,29.82,WNW,300,0.0,0.0,59,0.00,-SN,OVC,0.00,WeatherDisplay:10.37,2013-02-28 01:25:00,
2013-02-27 19:30:00,32.0,19.3,29.82,WNW,286,0.0,0.0,59,0.00,-SN,OVC,0.00,WeatherDisplay:10.37,2013-02-28 01:30:00,
2013-02-27 19:35:00,32.0,19.3,29.82,NNW,340,0.0,0.0,59,0.00,-SN,OVC,0.00,WeatherDisplay:10.37,2013-02-28 01:35:00,
2013-02-27 19:40:00,31.8,19.1,29.82,NNW,341,0.0,0.0,59,0.00,-SN,OVC,0.00,WeatherDisplay:10.37,2013-02-28 01:40:00,
2013-02-27 19:45:00,31.8,19.1,29.82,West,277,0.0,0.0,59,0.00,-SN,OVC,0.00,WeatherDisplay:10.37,2013-02-28 01:45:00,
2013-02-27 19:50:00,31.8,19.1,29.82,NW,304,0.0,0.0,59,0.00,-SN,OVC,0.00,WeatherDisplay:10.37,2013-02-28 01:50:00,
2013-02-27 19:55:00,31.8,19.1,29.82,West,271,0.0,0.0,59,0.00,-SN,OVC,0.00,WeatherDisplay:10.37,2013-02-28 01:55:00,
2013-02-27 20:00:00,31.8,19.1,29.82,WNW,302,0.0,0.0,59,0.00,-SN,OVC,0.00,WeatherDisplay:10.37,2013-02-28 02:00:00,
2013-02-27 20:05:00,31.8,19.1,29.82,NW,325,0.0,0.0,59,0.00,-SN,OVC,0.00,WeatherDisplay:10.37,2013-02-28 02:05:00,
2013-02-27 20:10:00,31.8,19.1,29.82,WSW,251,0.0,0.0,59,0.00,-SN,OVC,0.00,WeatherDisplay:10.37,2013-02-28 02:10:00,
2013-02-27 20:15:00,31.8,19.1,29.82,WNW,293,0.0,0.0,59,0.00,-SN,OVC,0.00,WeatherDisplay:10.37,2013-02-28 02:15:00,
2013-02-27 20:20:00,32.0,19.7,29.82,WNW,292,0.0,0.0,60,0.00,-SN,OVC,0.00,WeatherDisplay:10.37,2013-02-28 02:20:00,
2013-02-27 20:25:00,32.0,19.7,29.82,NNE,16,0.0,0.0,60,0.00,-SN,OVC,0.00,WeatherDisplay:10.37,2013-02-28 02:25:00,
2013-02-27 20:30:00,32.0,19.7,29.82,NW,316,0.0,0.0,60,0.00,-SN,OVC,0.00,WeatherDisplay:10.37,2013-02-28 02:30:00,
2013-02-27 20:35:00,32.0,19.3,29.82,WNW,290,0.0,0.0,59,0.00,-SN,OVC,0.00,WeatherDisplay:10.37,2013-02-28 02:35:00,
2013-02-27 20:40:00,32.0,19.3,29.82,WNW,303,0.0,0.0,59,0.00,-SN,OVC,0.00,WeatherDisplay:10.37,2013-02-28 02:40:00,
2013-02-27 20:45:00,32.0,19.3,29.82,NW,317,0.0,0.0,59,0.00,-SN,OVC,0.00,WeatherDisplay:10.37,2013-02-28 02:45:00,
2013-02-27 20:50:00,32.0,19.3,29.82,NW,309,0.0,0.0,59,0.00,-SN,OVC,0.00,WeatherDisplay:10.37,2013-02-28 02:50:00,
2013-02-27 20:55:00,32.0,19.3,29.82,WNW,288,0.0,0.0,59,0.00,-SN,OVC,0.00,WeatherDisplay:10.37,2013-02-28 02:55:00,
2013-02-27 21:00:00,32.0,19.3,29.82,NW,313,0.0,0.0,59,0.00,-SN,OVC,0.00,WeatherDisplay:10.37,2013-02-28 03:00:00,
2013-02-27 21:05:00,32.0,19.3,29.82,NNW,330,0.0,0.0,59,0.00,-SN,OVC,0.00,WeatherDisplay:10.37,2013-02-28 03:05:00,
2013-02-27 21:10:00,32.0,19.3,29.82,North,353,0.0,0.0,59,0.00,OVC,,0.00,WeatherDisplay:10.37,2013-02-28 03:10:00,
2013-02-27 21:15:00,32.0,19.3,29.82,North,350,0.0,0.0,59,0.00,OVC,,0.00,WeatherDisplay:10.37,2013-02-28 03:15:00,
2013-02-27 21:20:00,32.0,19.3,29.82,West,265,0.0,0.0,59,0.00,OVC,,0.00,WeatherDisplay:10.37,2013-02-28 03:20:00,
2013-02-27 21:25:00,32.0,19.3,29.82,NNE,21,0.0,0.0,59,0.00,OVC,,0.00,WeatherDisplay:10.37,2013-02-28 03:25:00,
2013-02-27 21:30:00,32.0,19.3,29.82,WSW,249,0.0,0.0,59,0.00,OVC,,0.00,WeatherDisplay:10.37,2013-02-28 03:30:00,
2013-02-27 21:35:00,32.0,18.9,29.82,NW,311,0.0,0.0,58,0.00,OVC,,0.00,WeatherDisplay:10.37,2013-02-28 03:35:00,
2013-02-27 21:40:00,32.0,18.9,29.82,NW,310,0.0,0.0,58,0.00,OVC,,0.00,WeatherDisplay:10.37,2013-02-28 03:40:00,
2013-02-27 21:45:00,32.0,18.9,29.85,WNW,288,0.0,0.0,58,0.00,OVC,,0.00,WeatherDisplay:10.37,2013-02-28 03:45:00,
2013-02-27 21:50:00,32.0,18.9,29.85,NW,308,0.0,0.0,58,0.00,OVC,,0.00,WeatherDisplay:10.37,2013-02-28 03:50:00,
2013-02-27 21:55:00,32.0,18.9,29.85,NW,317,0.0,0.0,58,0.00,OVC,,0.00,WeatherDisplay:10.37,2013-02-28 03:55:00,
2013-02-27 22:00:00,32.0,18.9,29.85,WNW,294,0.0,0.0,58,0.00,OVC,,0.00,WeatherDisplay:10.37,2013-02-28 04:00:00,
2013-02-27 22:05:00,31.8,18.7,29.85,NNW,328,0.0,0.0,58,0.00,OVC,,0.00,WeatherDisplay:10.37,2013-02-28 04:05:00,
2013-02-27 22:10:00,31.8,18.7,29.85,NNW,333,0.0,0.0,58,0.00,OVC,,0.00,WeatherDisplay:10.37,2013-02-28 04:10:00,
2013-02-27 22:15:00,31.6,18.5,29.85,NW,316,0.0,0.0,58,0.00,OVC,,0.00,WeatherDisplay:10.37,2013-02-28 04:15:00,
2013-02-27 22:20:00,31.6,18.5,29.85,WNW,301,0.0,0.0,58,0.00,OVC,,0.00,WeatherDisplay:10.37,2013-02-28 04:20:00,
2013-02-27 22:25:00,31.6,18.5,29.85,NW,318,0.0,0.0,58,0.00,OVC,,0.00,WeatherDisplay:10.37,2013-02-28 04:25:00,
2013-02-27 22:30:00,31.6,18.5,29.85,NNW,342,0.0,0.0,58,0.00,OVC,,0.00,WeatherDisplay:10.37,2013-02-28 04:30:00,
2013-02-27 22:35:00,31.6,18.5,29.85,WNW,300,0.0,0.0,58,0.00,OVC,,0.00,WeatherDisplay:10.37,2013-02-28 04:35:00,
2013-02-27 22:40:00,31.6,18.5,29.85,WNW,303,0.0,0.0,58,0.00,OVC,,0.00,WeatherDisplay:10.37,2013-02-28 04:40:00,
2013-02-27 22:45:00,31.6,18.5,29.85,NW,320,0.0,0.0,58,0.00,OVC,,0.00,WeatherDisplay:10.37,2013-02-28 04:45:00,
2013-02-27 22:50:00,31.5,18.4,29.85,North,353,0.0,0.0,58,0.00,OVC,,0.00,WeatherDisplay:10.37,2013-02-28 04:50:00,
2013-02-27 22:55:00,31.5,18.0,29.85,WNW,302,0.0,0.0,57,0.00,OVC,,0.00,WeatherDisplay:10.37,2013-02-28 04:55:00,
2013-02-27 23:00:00,31.5,18.0,29.85,NW,322,0.0,0.0,57,0.00,OVC,,0.00,WeatherDisplay:10.37,2013-02-28 05:00:00,
2013-02-27 23:05:00,31.3,17.8,29.85,NW,315,0.0,0.0,57,0.00,OVC,,0.00,WeatherDisplay:10.37,2013-02-28 05:05:00,
2013-02-27 23:08:00,31.1,17.6,29.85,WNW,286,0.0,0.0,57,0.00,OVC,,0.00,WeatherDisplay:10.37,2013-02-28 05:08:00,
2013-02-27 23:13:00,31.1,17.6,29.85,WSW,250,0.0,0.0,57,0.00,OVC,,0.00,WeatherDisplay:10.37,2013-02-28 05:13:00,
2013-02-27 23:18:00,31.1,17.6,29.85,West,260,0.0,0.0,57,0.00,OVC,,0.00,WeatherDisplay:10.37,2013-02-28 05:18:00,
2013-02-27 23:23:00,31.1,17.6,29.85,NW,307,0.0,0.0,57,0.00,OVC,,0.00,WeatherDisplay:10.37,2013-02-28 05:23:00,
2013-02-27 23:28:00,31.1,17.6,29.85,NNW,337,0.0,0.0,57,0.00,OVC,,0.00,WeatherDisplay:10.37,2013-02-28 05:28:00,
2013-02-27 23:33:00,31.3,17.8,29.85,WNW,303,0.0,0.0,57,0.00,OVC,,0.00,WeatherDisplay:10.37,2013-02-28 05:33:00,
2013-02-27 23:38:00,31.3,17.8,29.85,WNW,293,0.0,0.0,57,0.00,OVC,,0.00,WeatherDisplay:10.37,2013-02-28 05:38:00,
2013-02-27 23:43:00,31.3,17.8,29.82,NW,306,0.0,0.0,57,0.00,OVC,,0.00,WeatherDisplay:10.37,2013-02-28 05:43:00,
2013-02-27 23:48:00,31.3,17.8,29.82,NNW,342,0.0,0.0,57,0.00,OVC,,0.00,WeatherDisplay:10.37,2013-02-28 05:48:00,
2013-02-27 23:53:00,31.1,17.6,29.82,SW,220,0.0,0.0,57,0.00,OVC,,0.00,WeatherDisplay:10.37,2013-02-28 05:53:00,
2013-02-27 23:58:00,31.1,17.6,29.85,North,349,0.0,0.0,57,0.00,OVC,,0.00,WeatherDisplay:10.37,2013-02-28 05:58:00,